Time;durP1;ratioP1;P1;durP2;ratioP2;P2;SDS_P1;SDS_P2;PMS_P1;PMS_P2;Temp;Humidity;BMP_temperature;BMP_pressure;BME280_temperature;BME280_humidity;BME280_pressure;Samples;Min_cycle;Max_cycle;Signal;HPM_P1;HPM_P2
2021/03/06 00:02:18;;;;;;;0.88;0.40;;;;;;;;;;5093399;28;20024;-15
2021/03/06 00:04:44;;;;;;;0.38;0.38;;;;;;;;;;5093173;28;20028;-15
2021/03/06 00:07:09;;;;;;;0.82;0.73;;;;;;;;;;5093344;28;20028;-14
2021/03/06 00:09:36;;;;;;;0.30;0.10;;;;;;;;;;5093483;28;20077;-14
2021/03/06 00:12:02;;;;;;;0.60;0.60;;;;;;;;;;5093163;28;20043;-15
2021/03/06 00:14:27;;;;;;;0.32;0.30;;;;;;;;;;5092875;28;20020;-14
2021/03/06 00:16:52;;;;;;;4.18;0.60;;;;;;;;;;5093153;28;20107;-14
2021/03/06 00:19:18;;;;;;;1.05;0.60;;;;;;;;;;5093163;28;20429;-15
2021/03/06 00:21:43;;;;;;;1.05;0.80;;;;;;;;;;5092899;28;20036;-14
2021/03/06 00:24:09;;;;;;;1.45;0.63;;;;;;;;;;5092775;28;20032;-14
2021/03/06 00:26:34;;;;;;;0.38;0.38;;;;;;;;;;5092941;28;20039;-14
2021/03/06 00:28:59;;;;;;;0.50;0.50;;;;;;;;;;5091772;28;20016;-14
2021/03/06 00:31:25;;;;;;;0.95;0.77;;;;;;;;;;5093139;28;20027;-13
2021/03/06 00:33:51;;;;;;;0.10;0.10;;;;;;;;;;5093085;28;20008;-14
2021/03/06 00:36:17;;;;;;;0.35;0.28;;;;;;;;;;5093001;28;20378;-14
2021/03/06 00:38:42;;;;;;;0.63;0.50;;;;;;;;;;5092744;28;20026;-15
2021/03/06 00:41:08;;;;;;;2.60;0.85;;;;;;;;;;5091459;28;20426;-14
2021/03/06 00:43:33;;;;;;;0.10;0.10;;;;;;;;;;5092723;28;20409;-14
2021/03/06 00:45:58;;;;;;;1.27;0.52;;;;;;;;;;5092424;28;20086;-14
2021/03/06 00:48:24;;;;;;;0.80;0.80;;;;;;;;;;5092632;28;20020;-14
2021/03/06 00:50:50;;;;;;;0.28;0.22;;;;;;;;;;5091323;28;20397;-14
2021/03/06 00:53:15;;;;;;;0.40;0.40;;;;;;;;;;5092541;28;20527;-14
2021/03/06 00:55:41;;;;;;;1.23;0.73;;;;;;;;;;5091221;28;20398;-15
2021/03/06 00:58:07;;;;;;;1.45;1.17;;;;;;;;;;5092564;28;20027;-15
2021/03/06 01:00:34;;;;;;;1.88;0.50;;;;;;;;;;5091108;28;20550;-14
2021/03/06 01:03:03;;;;;;;1.90;1.15;;;;;;;;;;5092689;28;20020;-15
2021/03/06 01:05:28;;;;;;;0.38;0.38;;;;;;;;;;5091113;28;20051;-14
2021/03/06 01:07:54;;;;;;;2.80;1.73;;;;;;;;;;5092272;28;20035;-14
2021/03/06 01:10:21;;;;;;;0.50;0.43;;;;;;;;;;5092499;28;20103;-14
2021/03/06 01:12:46;;;;;;;1.80;0.88;;;;;;;;;;5092335;28;20476;-14
2021/03/06 01:15:12;;;;;;;4.03;1.38;;;;;;;;;;5092281;28;20158;-14
2021/03/06 01:17:37;;;;;;;2.67;1.88;;;;;;;;;;5091027;28;20023;-14
2021/03/06 01:20:04;;;;;;;2.25;1.08;;;;;;;;;;5092260;28;20388;-15
2021/03/06 01:22:29;;;;;;;0.20;0.20;;;;;;;;;;5092129;28;20040;-14
2021/03/06 01:24:54;;;;;;;2.75;1.98;;;;;;;;;;5092487;28;20032;-15
2021/03/06 01:27:20;;;;;;;1.08;0.88;;;;;;;;;;5095357;28;20028;-14
2021/03/06 01:29:45;;;;;;;0.88;0.80;;;;;;;;;;5096216;28;20032;-14
2021/03/06 01:32:11;;;;;;;0.20;0.20;;;;;;;;;;5096295;28;20099;-14
2021/03/06 01:34:37;;;;;;;2.08;1.20;;;;;;;;;;5094961;28;20024;-14
2021/03/06 01:37:03;;;;;;;0.10;0.10;;;;;;;;;;5095082;28;20437;-14
2021/03/06 01:39:28;;;;;;;0.55;0.55;;;;;;;;;;5096168;28;20111;-14
2021/03/06 01:41:53;;;;;;;1.10;1.00;;;;;;;;;;5095982;28;20016;-14
2021/03/06 01:44:19;;;;;;;1.45;1.10;;;;;;;;;;5095857;28;20499;-15
2021/03/06 01:46:44;;;;;;;0.43;0.43;;;;;;;;;;5094697;28;20095;-14
2021/03/06 01:49:10;;;;;;;0.57;0.57;;;;;;;;;;5096136;28;20030;-14
2021/03/06 01:51:35;;;;;;;1.27;0.90;;;;;;;;;;5095899;28;20459;-14
2021/03/06 01:54:02;;;;;;;1.52;1.20;;;;;;;;;;5096049;28;20035;-14
2021/03/06 01:56:28;;;;;;;1.38;1.23;;;;;;;;;;5095706;28;20036;-14
2021/03/06 01:58:53;;;;;;;2.95;1.95;;;;;;;;;;5095806;28;20024;-14
2021/03/06 02:01:19;;;;;;;2.38;1.02;;;;;;;;;;5094864;28;20027;-14
2021/03/06 02:03:44;;;;;;;2.97;1.85;;;;;;;;;;5095757;28;20028;-14
2021/03/06 02:06:16;;;;;;;2.30;1.00;;;;;;;;;;5095652;28;20064;-14
2021/03/06 02:08:41;;;;;;;3.30;1.60;;;;;;;;;;5094177;28;20059;-14
2021/03/06 02:11:07;;;;;;;2.30;1.58;;;;;;;;;;5095866;28;20103;-13
2021/03/06 02:13:52;;;;;;;1.50;1.13;;;;;;;;;;5095514;28;20516;-14
2021/03/06 02:16:21;;;;;;;2.97;1.83;;;;;;;;;;5095464;28;20021;-14
2021/03/06 02:19:05;;;;;;;2.45;1.38;;;;;;;;;;5095269;28;20057;-14
2021/03/06 02:21:49;;;;;;;2.08;0.82;;;;;;;;;;5095285;28;20024;-14
2021/03/06 02:24:33;;;;;;;3.92;2.28;;;;;;;;;;5095291;28;20040;-15
2021/03/06 02:27:12;;;;;;;1.52;1.35;;;;;;;;;;5095252;28;20047;-14
2021/03/06 02:29:38;;;;;;;6.55;3.63;;;;;;;;;;5094022;28;20099;-15
2021/03/06 02:32:06;;;;;;;3.60;2.45;;;;;;;;;;5095029;28;20564;-14
2021/03/06 02:34:32;;;;;;;3.35;2.33;;;;;;;;;;5095205;28;20064;-15
2021/03/06 02:37:00;;;;;;;4.22;3.03;;;;;;;;;;5093305;28;20056;-16
2021/03/06 02:39:26;;;;;;;2.20;1.70;;;;;;;;;;5095239;28;20023;-14
2021/03/06 02:41:52;;;;;;;0.82;0.73;;;;;;;;;;5094986;28;20023;-14
2021/03/06 02:44:19;;;;;;;5.15;2.97;;;;;;;;;;5095041;28;20051;-14
2021/03/06 02:46:45;;;;;;;2.63;2.33;;;;;;;;;;5095067;28;20031;-14
2021/03/06 02:49:10;;;;;;;2.20;1.33;;;;;;;;;;5093562;28;20036;-15
2021/03/06 02:51:37;;;;;;;1.30;1.20;;;;;;;;;;5095010;28;20024;-14
2021/03/06 02:54:03;;;;;;;8.02;2.70;;;;;;;;;;5094634;28;20024;-14
2021/03/06 02:56:28;;;;;;;1.15;1.05;;;;;;;;;;5094630;28;20549;-14
2021/03/06 02:58:59;;;;;;;3.38;2.53;;;;;;;;;;5094544;28;20111;-14
2021/03/06 03:01:43;;;;;;;1.45;1.17;;;;;;;;;;5093103;28;20040;-14
2021/03/06 03:04:27;;;;;;;2.35;1.90;;;;;;;;;;5094520;28;20043;-14
2021/03/06 03:06:56;;;;;;;5.72;3.50;;;;;;;;;;5094410;28;20064;-15
2021/03/06 03:09:24;;;;;;;5.38;4.45;;;;;;;;;;5094485;28;20008;-15
2021/03/06 03:11:56;;;;;;;3.50;2.45;;;;;;;;;;5094215;28;20474;-14
2021/03/06 03:14:37;;;;;;;4.65;2.13;;;;;;;;;;5094422;28;20028;-14
2021/03/06 03:17:07;;;;;;;0.95;0.73;;;;;;;;;;5094400;28;20024;-15
2021/03/06 03:19:51;;;;;;;3.00;2.58;;;;;;;;;;5093010;28;20475;-15
2021/03/06 03:22:20;;;;;;;3.03;2.33;;;;;;;;;;5094049;28;20054;-15
2021/03/06 03:24:46;;;;;;;5.82;3.25;;;;;;;;;;5093903;28;20046;-14
2021/03/06 03:27:11;;;;;;;4.85;2.72;;;;;;;;;;5094044;28;20115;-15
2021/03/06 03:29:40;;;;;;;2.25;2.03;;;;;;;;;;5094065;28;20062;-14
2021/03/06 03:32:06;;;;;;;1.85;1.25;;;;;;;;;;5093899;28;20119;-14
2021/03/06 03:34:33;;;;;;;5.60;4.05;;;;;;;;;;5093916;28;20020;-14
2021/03/06 03:36:59;;;;;;;4.15;3.45;;;;;;;;;;5093947;28;20034;-15
2021/03/06 03:39:24;;;;;;;3.20;2.30;;;;;;;;;;5093906;28;20024;-14
2021/03/06 03:41:50;;;;;;;3.83;3.17;;;;;;;;;;5093736;28;20044;-15
2021/03/06 03:44:15;;;;;;;5.25;4.75;;;;;;;;;;5093802;28;20020;-16
2021/03/06 03:46:41;;;;;;;4.53;2.97;;;;;;;;;;5093644;28;20399;-15
2021/03/06 03:49:12;;;;;;;4.95;3.83;;;;;;;;;;5093302;28;20016;-15
2021/03/06 03:51:38;;;;;;;4.95;0.98;;;;;;;;;;5093546;28;20470;-15
2021/03/06 03:54:04;;;;;;;4.10;2.92;;;;;;;;;;5093570;28;20019;-15
2021/03/06 03:56:30;;;;;;;2.33;1.80;;;;;;;;;;5093730;28;20051;-15
2021/03/06 03:58:55;;;;;;;4.57;3.10;;;;;;;;;;5093653;28;20481;-15
2021/03/06 04:01:20;;;;;;;4.57;2.78;;;;;;;;;;5093714;28;20020;-14
2021/03/06 04:03:46;;;;;;;4.60;2.67;;;;;;;;;;5093262;28;20024;-15
2021/03/06 04:06:11;;;;;;;5.28;2.60;;;;;;;;;;5091897;28;20039;-15
2021/03/06 04:08:36;;;;;;;2.97;2.20;;;;;;;;;;5093368;28;20012;-15
2021/03/06 04:11:02;;;;;;;2.45;1.48;;;;;;;;;;5093235;28;20028;-14
2021/03/06 04:13:27;;;;;;;2.45;0.93;;;;;;;;;;5093185;28;20016;-15
2021/03/06 04:15:53;;;;;;;3.55;2.30;;;;;;;;;;5092956;28;20066;-15
2021/03/06 04:18:18;;;;;;;1.50;1.40;;;;;;;;;;5093618;28;20016;-14
2021/03/06 04:20:44;;;;;;;1.15;0.90;;;;;;;;;;5093234;28;20032;-14
2021/03/06 04:23:09;;;;;;;4.13;2.40;;;;;;;;;;5093057;28;20100;-14
2021/03/06 04:25:34;;;;;;;2.85;2.28;;;;;;;;;;5093136;28;20070;-14
2021/03/06 04:28:00;;;;;;;1.35;1.25;;;;;;;;;;5092771;28;20035;-14
2021/03/06 04:30:25;;;;;;;4.20;2.47;;;;;;;;;;5092970;28;20111;-14
2021/03/06 04:32:51;;;;;;;5.05;3.78;;;;;;;;;;5092801;28;20016;-15
2021/03/06 04:35:16;;;;;;;5.30;2.97;;;;;;;;;;5093056;28;20032;-15
2021/03/06 04:37:42;;;;;;;6.55;3.63;;;;;;;;;;5092978;28;20016;-14
2021/03/06 04:40:08;;;;;;;5.18;2.72;;;;;;;;;;5092654;28;20020;-15
2021/03/06 04:42:34;;;;;;;5.60;2.40;;;;;;;;;;5093030;28;20020;-14
2021/03/06 04:45:00;;;;;;;3.10;2.40;;;;;;;;;;5092639;28;20044;-15
2021/03/06 04:47:25;;;;;;;4.53;2.80;;;;;;;;;;5091250;28;20027;-16
2021/03/06 04:49:50;;;;;;;3.63;2.50;;;;;;;;;;5092592;28;20463;-14
2021/03/06 04:52:16;;;;;;;6.40;2.90;;;;;;;;;;5092523;28;20107;-15
2021/03/06 04:54:41;;;;;;;3.42;3.10;;;;;;;;;;5092418;28;20039;-14
2021/03/06 04:57:07;;;;;;;1.00;0.95;;;;;;;;;;5092429;28;20021;-15
2021/03/06 04:59:33;;;;;;;2.78;2.13;;;;;;;;;;5092412;28;20479;-14
2021/03/06 05:01:58;;;;;;;3.60;2.92;;;;;;;;;;5092529;28;20028;-15
2021/03/06 05:04:23;;;;;;;4.00;2.65;;;;;;;;;;5092674;28;20491;-14
2021/03/06 05:06:49;;;;;;;6.32;2.70;;;;;;;;;;5092181;28;20420;-14
2021/03/06 05:09:14;;;;;;;4.50;2.47;;;;;;;;;;5092358;28;20032;-15
2021/03/06 05:11:40;;;;;;;4.80;2.88;;;;;;;;;;5092383;28;20028;-14
2021/03/06 05:14:05;;;;;;;1.67;1.38;;;;;;;;;;5092270;28;20036;-14
2021/03/06 05:16:31;;;;;;;2.97;2.70;;;;;;;;;;5092437;28;20020;-14
2021/03/06 05:18:56;;;;;;;2.03;1.83;;;;;;;;;;5092177;28;20024;-14
2021/03/06 05:21:21;;;;;;;5.05;1.75;;;;;;;;;;5092224;28;20077;-15
2021/03/06 05:23:47;;;;;;;3.13;2.65;;;;;;;;;;5092087;28;20039;-14
2021/03/06 05:26:12;;;;;;;1.15;0.80;;;;;;;;;;5092493;28;20490;-14
2021/03/06 05:28:38;;;;;;;3.92;2.65;;;;;;;;;;5092268;28;20107;-13
2021/03/06 05:31:03;;;;;;;11.77;2.92;;;;;;;;;;5090692;28;20119;-14
2021/03/06 05:33:28;;;;;;;3.53;2.08;;;;;;;;;;5092267;28;20033;-15
2021/03/06 05:35:54;;;;;;;3.10;1.70;;;;;;;;;;5090734;28;20031;-13
2021/03/06 05:38:19;;;;;;;4.13;3.13;;;;;;;;;;5092033;28;20032;-13
2021/03/06 05:40:46;;;;;;;4.65;2.75;;;;;;;;;;5092139;28;20085;-12
2021/03/06 05:43:11;;;;;;;2.20;1.27;;;;;;;;;;5092321;28;20051;-13
2021/03/06 05:45:37;;;;;;;3.53;2.10;;;;;;;;;;5092188;28;20066;-12
2021/03/06 05:48:03;;;;;;;2.38;1.83;;;;;;;;;;5092087;28;20027;-12
2021/03/06 05:50:29;;;;;;;4.55;2.53;;;;;;;;;;5092017;28;20028;-13
2021/03/06 05:52:58;;;;;;;0.65;0.52;;;;;;;;;;5091914;28;20024;-14
2021/03/06 05:55:24;;;;;;;2.03;1.63;;;;;;;;;;5091953;28;20024;-12
2021/03/06 05:57:50;;;;;;;1.75;1.48;;;;;;;;;;5092017;28;20032;-12
2021/03/06 06:00:15;;;;;;;2.58;1.90;;;;;;;;;;5092056;28;20045;-12
2021/03/06 06:02:41;;;;;;;4.38;1.92;;;;;;;;;;5091938;28;20028;-13
2021/03/06 06:05:07;;;;;;;3.08;2.47;;;;;;;;;;5091690;28;20032;-14
2021/03/06 06:07:34;;;;;;;1.33;0.93;;;;;;;;;;5091736;28;20036;-12
2021/03/06 06:10:00;;;;;;;4.00;2.05;;;;;;;;;;5091809;28;20462;-14
2021/03/06 06:12:26;;;;;;;2.28;1.73;;;;;;;;;;5094536;28;20032;-13
2021/03/06 06:14:51;;;;;;;1.60;0.93;;;;;;;;;;5095723;28;20512;-14
2021/03/06 06:17:16;;;;;;;4.68;2.58;;;;;;;;;;5095480;28;20026;-14
2021/03/06 06:19:42;;;;;;;2.20;1.70;;;;;;;;;;5095307;28;20027;-16
2021/03/06 06:22:19;;;;;;;8.45;2.22;;;;;;;;;;5095057;28;20048;-14
2021/03/06 06:24:45;;;;;;;6.82;2.10;;;;;;;;;;5095447;28;20439;-15
2021/03/06 06:27:11;;;;;;;1.73;1.42;;;;;;;;;;5095154;28;20039;-15
2021/03/06 06:29:46;;;;;;;3.22;1.60;;;;;;;;;;5095200;28;20475;-14
2021/03/06 06:32:13;;;;;;;0.47;0.47;;;;;;;;;;5074082;28;20040;-16
2021/03/06 06:34:39;;;;;;;0.57;0.40;;;;;;;;;;5074891;28;20134;-16
2021/03/06 06:37:08;;;;;;;5.35;2.30;;;;;;;;;;5074586;28;20060;-16
2021/03/06 06:39:34;;;;;;;2.20;2.00;;;;;;;;;;5074875;28;20070;-16
2021/03/06 06:42:00;;;;;;;1.63;0.63;;;;;;;;;;5088345;28;20020;-14
2021/03/06 06:44:27;;;;;;;2.47;1.85;;;;;;;;;;5094598;28;20019;-16
2021/03/06 06:46:53;;;;;;;2.30;1.73;;;;;;;;;;5094774;28;20031;-15
2021/03/06 06:49:19;;;;;;;3.55;2.38;;;;;;;;;;5094767;28;20462;-15
2021/03/06 06:51:57;;;;;;;1.90;1.80;;;;;;;;;;5094562;28;20036;-15
2021/03/06 06:54:23;;;;;;;3.78;1.65;;;;;;;;;;5094712;28;20028;-15
2021/03/06 06:56:48;;;;;;;2.47;1.42;;;;;;;;;;5094316;28;20135;-16
2021/03/06 06:59:15;;;;;;;2.63;1.20;;;;;;;;;;5094445;28;20036;-16
2021/03/06 07:01:41;;;;;;;1.23;1.13;;;;;;;;;;5094283;28;20376;-16
2021/03/06 07:04:08;;;;;;;2.42;1.77;;;;;;;;;;5078548;28;20041;-16
2021/03/06 07:06:34;;;;;;;3.65;2.00;;;;;;;;;;5074168;28;20025;-14
2021/03/06 07:09:03;;;;;;;4.28;2.10;;;;;;;;;;5073971;28;20528;-16
2021/03/06 07:11:29;;;;;;;2.28;1.90;;;;;;;;;;5073925;28;20499;-15
2021/03/06 07:13:55;;;;;;;5.93;1.90;;;;;;;;;;5073679;28;20041;-16
2021/03/06 07:16:20;;;;;;;1.42;1.13;;;;;;;;;;5073713;28;20018;-16
2021/03/06 07:18:57;;;;;;;2.88;1.92;;;;;;;;;;5073821;28;20112;-16
2021/03/06 07:21:23;;;;;;;4.97;2.10;;;;;;;;;;5073416;28;20025;-16
2021/03/06 07:23:49;;;;;;;2.97;2.15;;;;;;;;;;5072478;28;20040;-15
2021/03/06 07:26:15;;;;;;;2.42;1.95;;;;;;;;;;5073042;28;20076;-16
2021/03/06 07:28:40;;;;;;;2.33;1.63;;;;;;;;;;5073693;28;20028;-16
2021/03/06 07:31:06;;;;;;;3.58;2.20;;;;;;;;;;5073380;28;20036;-16
2021/03/06 07:33:31;;;;;;;1.77;1.60;;;;;;;;;;5073545;28;20017;-15
2021/03/06 07:35:57;;;;;;;3.17;2.03;;;;;;;;;;5073011;28;20042;-16
2021/03/06 07:38:23;;;;;;;3.08;2.15;;;;;;;;;;5073338;28;20017;-15
2021/03/06 07:40:55;;;;;;;1.67;1.10;;;;;;;;;;5072125;28;20466;-16
2021/03/06 07:43:21;;;;;;;3.30;1.90;;;;;;;;;;5073164;28;20116;-16
2021/03/06 07:45:48;;;;;;;3.25;1.50;;;;;;;;;;5073298;28;20024;-15
2021/03/06 07:48:15;;;;;;;1.70;1.50;;;;;;;;;;5073190;28;20028;-16
2021/03/06 07:50:44;;;;;;;1.58;1.40;;;;;;;;;;5073229;28;20016;-16
2021/03/06 07:53:11;;;;;;;3.25;1.83;;;;;;;;;;5073010;28;20027;-14
2021/03/06 07:55:36;;;;;;;1.75;1.50;;;;;;;;;;5073015;28;20016;-15
2021/03/06 07:58:02;;;;;;;2.92;1.50;;;;;;;;;;5073009;28;20379;-14
2021/03/06 08:00:37;;;;;;;3.17;1.67;;;;;;;;;;5072670;28;20379;-14
2021/03/06 08:03:23;;;;;;;2.00;1.55;;;;;;;;;;5073061;28;20036;-16
2021/03/06 08:05:49;;;;;;;1.17;1.00;;;;;;;;;;5072572;28;20067;-16
2021/03/06 08:08:30;;;;;;;3.05;1.67;;;;;;;;;;5072727;28;20025;-16
2021/03/06 08:11:02;;;;;;;2.10;1.67;;;;;;;;;;5071414;28;20037;-16
2021/03/06 08:13:47;;;;;;;2.55;1.70;;;;;;;;;;5072754;28;20046;-15
2021/03/06 08:16:21;;;;;;;2.58;2.00;;;;;;;;;;5072709;28;20024;-14
2021/03/06 08:18:48;;;;;;;0.65;0.63;;;;;;;;;;5072470;28;20107;-15
2021/03/06 08:21:32;;;;;;;2.67;1.80;;;;;;;;;;5072599;28;20052;-14
2021/03/06 08:24:19;;;;;;;5.63;1.30;;;;;;;;;;5071177;28;20549;-16
2021/03/06 08:26:52;;;;;;;1.90;0.88;;;;;;;;;;5072465;28;20047;-15
2021/03/06 08:29:24;;;;;;;3.28;1.75;;;;;;;;;;5072417;28;20032;-15
2021/03/06 08:31:55;;;;;;;2.70;1.30;;;;;;;;;;5072348;28;20510;-16
2021/03/06 08:34:30;;;;;;;1.95;1.70;;;;;;;;;;5072173;28;20036;-15
2021/03/06 08:37:20;;;;;;;2.70;1.90;;;;;;;;;;5072430;28;20039;-15
2021/03/06 08:39:46;;;;;;;2.88;1.75;;;;;;;;;;5070888;28;20062;-15
2021/03/06 08:42:12;;;;;;;2.20;1.35;;;;;;;;;;5072161;28;20013;-15
2021/03/06 08:44:37;;;;;;;2.55;1.88;;;;;;;;;;5072434;28;20033;-15
2021/03/06 08:47:04;;;;;;;2.65;2.45;;;;;;;;;;4721872;28;9999784;-17
2021/03/06 08:49:31;;;;;;;2.50;1.52;;;;;;;;;;5088299;28;20121;-16
2021/03/06 08:51:57;;;;;;;3.10;2.55;;;;;;;;;;5088863;28;20072;-17
2021/03/06 08:54:23;;;;;;;1.98;1.88;;;;;;;;;;5088918;28;20059;-16
2021/03/06 08:56:50;;;;;;;3.63;2.50;;;;;;;;;;5088938;28;20539;-16
2021/03/06 08:59:16;;;;;;;3.22;2.97;;;;;;;;;;5088636;28;20051;-15
2021/03/06 09:01:42;;;;;;;3.75;2.22;;;;;;;;;;5089177;28;20103;-15
2021/03/06 09:04:11;;;;;;;2.97;2.10;;;;;;;;;;5088808;28;20055;-15
2021/03/06 09:06:37;;;;;;;2.88;1.38;;;;;;;;;;5088949;28;20038;-16
2021/03/06 09:09:08;;;;;;;3.08;1.15;;;;;;;;;;5088585;28;20481;-15
2021/03/06 09:11:35;;;;;;;2.90;1.75;;;;;;;;;;5088191;28;20383;-14
2021/03/06 09:14:00;;;;;;;1.50;1.00;;;;;;;;;;5088815;28;20413;-15
2021/03/06 09:16:26;;;;;;;3.03;2.05;;;;;;;;;;5089335;28;20073;-15
2021/03/06 09:18:51;;;;;;;6.53;2.28;;;;;;;;;;5088256;28;20024;-16
2021/03/06 09:21:23;;;;;;;3.08;1.92;;;;;;;;;;5088889;28;20036;-14
2021/03/06 09:23:49;;;;;;;2.00;1.42;;;;;;;;;;5088234;28;20509;-15
2021/03/06 09:26:26;;;;;;;2.70;1.50;;;;;;;;;;5088432;28;20100;-14
2021/03/06 09:28:52;;;;;;;2.25;1.80;;;;;;;;;;5087955;28;20039;-16
2021/03/06 09:31:24;;;;;;;2.67;1.35;;;;;;;;;;5088086;28;20107;-15
2021/03/06 09:33:50;;;;;;;3.05;1.77;;;;;;;;;;5088497;28;20032;-15
2021/03/06 09:36:21;;;;;;;4.75;2.20;;;;;;;;;;5087686;28;20027;-15
2021/03/06 09:38:51;;;;;;;3.30;1.85;;;;;;;;;;5088706;28;20390;-15
2021/03/06 09:41:23;;;;;;;1.85;1.70;;;;;;;;;;5088675;28;20382;-15
2021/03/06 09:43:50;;;;;;;2.60;1.73;;;;;;;;;;5088396;28;20025;-15
2021/03/06 09:46:16;;;;;;;2.78;1.98;;;;;;;;;;5089021;28;20751;-14
2021/03/06 09:48:49;;;;;;;2.58;1.67;;;;;;;;;;5091946;28;20635;-15
2021/03/06 09:51:16;;;;;;;6.50;3.13;;;;;;;;;;5092149;28;20103;-15
2021/03/06 09:53:41;;;;;;;2.00;1.67;;;;;;;;;;5092198;28;20062;-16
2021/03/06 09:56:11;;;;;;;5.32;1.63;;;;;;;;;;5091973;28;20594;-17
2021/03/06 09:58:37;;;;;;;5.07;2.42;;;;;;;;;;5092027;28;20031;-15
2021/03/06 10:01:13;;;;;;;7.22;3.08;;;;;;;;;;5091903;28;20485;-15
2021/03/06 10:03:39;;;;;;;3.33;2.10;;;;;;;;;;5092322;28;20500;-15
2021/03/06 10:06:05;;;;;;;2.00;1.55;;;;;;;;;;5091913;28;20032;-16
2021/03/06 10:08:32;;;;;;;2.80;1.80;;;;;;;;;;5091487;28;20024;-16
2021/03/06 10:10:58;;;;;;;3.08;2.00;;;;;;;;;;5091141;28;20035;-13
2021/03/06 10:13:24;;;;;;;2.70;1.55;;;;;;;;;;5091593;28;20039;-14
2021/03/06 10:15:50;;;;;;;4.70;2.08;;;;;;;;;;5091697;28;20085;-15
2021/03/06 10:18:17;;;;;;;2.90;1.85;;;;;;;;;;5085560;28;20475;-13
2021/03/06 10:20:43;;;;;;;3.20;1.83;;;;;;;;;;5071893;28;20074;-15
2021/03/06 10:23:10;;;;;;;3.03;2.13;;;;;;;;;;5071007;28;20056;-14
2021/03/06 10:25:36;;;;;;;2.58;1.40;;;;;;;;;;5071818;28;20040;-15
2021/03/06 10:28:09;;;;;;;2.50;1.50;;;;;;;;;;5071135;28;20029;-15
2021/03/06 10:30:37;;;;;;;4.07;2.25;;;;;;;;;;5071426;28;20032;-15
2021/03/06 10:33:03;;;;;;;5.95;1.85;;;;;;;;;;5071357;28;20032;-14
2021/03/06 10:35:40;;;;;;;3.30;2.38;;;;;;;;;;5070929;28;20041;-15
2021/03/06 10:38:07;;;;;;;4.68;1.85;;;;;;;;;;5071166;28;20124;-14
2021/03/06 10:40:49;;;;;;;4.60;2.63;;;;;;;;;;5071200;28;20025;-14
2021/03/06 10:43:33;;;;;;;1.90;1.67;;;;;;;;;;5070631;28;20044;-14
2021/03/06 10:46:08;;;;;;;2.55;1.50;;;;;;;;;;5071087;28;20498;-16
2021/03/06 10:48:34;;;;;;;6.95;2.13;;;;;;;;;;5085446;28;20045;-13
2021/03/06 10:51:00;;;;;;;3.42;1.67;;;;;;;;;;5091601;28;20020;-14
2021/03/06 10:53:27;;;;;;;2.33;1.58;;;;;;;;;;5090461;28;20394;-13
2021/03/06 10:55:53;;;;;;;4.07;2.20;;;;;;;;;;5090849;28;20044;-14
2021/03/06 10:58:18;;;;;;;5.20;1.90;;;;;;;;;;5088844;28;20075;-14
2021/03/06 11:00:45;;;;;;;2.13;1.80;;;;;;;;;;5084779;28;20020;-13
2021/03/06 11:03:11;;;;;;;1.58;1.17;;;;;;;;;;5070819;28;20115;-13
2021/03/06 11:05:38;;;;;;;2.22;1.88;;;;;;;;;;5067963;28;20035;-14
2021/03/06 11:08:16;;;;;;;2.35;1.52;;;;;;;;;;5069434;28;20029;-15
2021/03/06 11:10:44;;;;;;;3.50;2.25;;;;;;;;;;5070802;28;20081;-15
2021/03/06 11:13:10;;;;;;;2.85;1.90;;;;;;;;;;5070730;28;20126;-15
2021/03/06 11:15:35;;;;;;;2.75;1.58;;;;;;;;;;5069910;28;20040;-16
2021/03/06 11:18:02;;;;;;;3.83;2.78;;;;;;;;;;5069932;28;20374;-16
2021/03/06 11:20:29;;;;;;;2.72;1.38;;;;;;;;;;5069938;28;20155;-16
2021/03/06 11:22:55;;;;;;;2.75;2.05;;;;;;;;;;5068579;28;20494;-15
2021/03/06 11:25:22;;;;;;;2.10;1.58;;;;;;;;;;5070150;28;20045;-15
2021/03/06 11:27:48;;;;;;;2.42;2.20;;;;;;;;;;5070360;28;20024;-15
2021/03/06 11:30:14;;;;;;;2.47;1.30;;;;;;;;;;5070930;28;20064;-15
2021/03/06 11:32:39;;;;;;;4.53;2.10;;;;;;;;;;5070571;28;20040;-14
2021/03/06 11:35:06;;;;;;;2.45;1.85;;;;;;;;;;5069855;28;20386;-13
2021/03/06 11:37:31;;;;;;;5.15;2.05;;;;;;;;;;5069001;28;20035;-14
2021/03/06 11:39:56;;;;;;;1.55;1.33;;;;;;;;;;5069895;28;20036;-13
2021/03/06 11:42:22;;;;;;;2.90;1.75;;;;;;;;;;5070377;28;20044;-14
2021/03/06 11:44:47;;;;;;;3.22;1.60;;;;;;;;;;5069737;28;20040;-14
2021/03/06 11:47:13;;;;;;;5.40;1.65;;;;;;;;;;5071762;28;20039;-14
2021/03/06 11:49:38;;;;;;;2.33;1.90;;;;;;;;;;5089893;28;20115;-14
2021/03/06 11:52:05;;;;;;;3.03;1.95;;;;;;;;;;5089708;28;20024;-14
2021/03/06 11:54:30;;;;;;;3.08;2.03;;;;;;;;;;5089768;28;20020;-14
2021/03/06 11:56:56;;;;;;;2.17;1.75;;;;;;;;;;5089735;28;20019;-14
2021/03/06 11:59:21;;;;;;;3.28;2.53;;;;;;;;;;5089283;28;20072;-14
2021/03/06 12:01:47;;;;;;;4.70;2.05;;;;;;;;;;5087905;28;20016;-14
2021/03/06 12:04:12;;;;;;;2.03;1.40;;;;;;;;;;5089532;28;20020;-14
2021/03/06 12:06:38;;;;;;;3.78;2.25;;;;;;;;;;5089288;28;20117;-14
2021/03/06 12:09:03;;;;;;;5.72;1.55;;;;;;;;;;5088723;28;20028;-13
2021/03/06 12:11:29;;;;;;;4.47;2.10;;;;;;;;;;5089387;28;20027;-13
2021/03/06 12:13:55;;;;;;;2.85;1.80;;;;;;;;;;5089701;28;20150;-13
2021/03/06 12:16:20;;;;;;;1.95;1.60;;;;;;;;;;5089497;28;20580;-13
2021/03/06 12:18:46;;;;;;;2.60;1.65;;;;;;;;;;5089405;28;20424;-15
2021/03/06 12:21:11;;;;;;;10.52;2.53;;;;;;;;;;5089246;28;20011;-14
2021/03/06 12:23:36;;;;;;;4.15;2.38;;;;;;;;;;5088680;28;20411;-15
2021/03/06 12:26:02;;;;;;;2.45;1.50;;;;;;;;;;5089038;28;20101;-14
2021/03/06 12:28:28;;;;;;;3.08;2.10;;;;;;;;;;5088890;28;20031;-13
2021/03/06 12:30:53;;;;;;;3.08;1.90;;;;;;;;;;5088695;28;20028;-14
2021/03/06 12:33:19;;;;;;;2.35;1.65;;;;;;;;;;5089387;28;20024;-14
2021/03/06 12:35:44;;;;;;;3.70;2.03;;;;;;;;;;5088470;28;20498;-14
2021/03/06 12:38:10;;;;;;;2.13;1.52;;;;;;;;;;5088763;28;20024;-14
2021/03/06 12:40:35;;;;;;;3.90;1.77;;;;;;;;;;5089297;28;20028;-14
2021/03/06 12:43:00;;;;;;;1.38;1.30;;;;;;;;;;5088741;28;20024;-16
2021/03/06 12:45:26;;;;;;;3.60;1.73;;;;;;;;;;5088325;28;20517;-14
2021/03/06 12:47:51;;;;;;;1.88;1.73;;;;;;;;;;5081488;28;20028;-15
2021/03/06 12:50:17;;;;;;;1.42;1.00;;;;;;;;;;5088334;28;20020;-13
2021/03/06 12:52:42;;;;;;;4.22;2.25;;;;;;;;;;5088692;28;20081;-15
2021/03/06 12:55:08;;;;;;;2.28;1.52;;;;;;;;;;5088246;28;20024;-14
2021/03/06 12:57:34;;;;;;;6.20;2.17;;;;;;;;;;5088966;28;20028;-14
2021/03/06 12:59:59;;;;;;;3.67;1.88;;;;;;;;;;5088207;28;20099;-14
2021/03/06 13:02:25;;;;;;;2.05;1.20;;;;;;;;;;5088596;28;20118;-14
2021/03/06 13:04:50;;;;;;;4.13;1.80;;;;;;;;;;5088674;28;20028;-14
2021/03/06 13:07:16;;;;;;;3.45;1.92;;;;;;;;;;5086654;28;20028;-14
2021/03/06 13:09:41;;;;;;;5.55;2.65;;;;;;;;;;5088380;28;20012;-24
2021/03/06 13:12:07;;;;;;;2.63;1.67;;;;;;;;;;5088110;28;20025;-13
2021/03/06 13:14:32;;;;;;;3.22;2.00;;;;;;;;;;5088519;28;20031;-15
2021/03/06 13:16:58;;;;;;;2.33;1.50;;;;;;;;;;5088226;28;20043;-14
2021/03/06 13:19:23;;;;;;;2.25;1.58;;;;;;;;;;5088163;28;20700;-13
2021/03/06 13:21:49;;;;;;;3.35;1.95;;;;;;;;;;5088756;28;20028;-15
2021/03/06 13:24:14;;;;;;;1.88;1.38;;;;;;;;;;5092303;28;20024;-14
2021/03/06 13:26:40;;;;;;;3.53;1.85;;;;;;;;;;5092298;28;20075;-14
2021/03/06 13:29:05;;;;;;;4.45;1.50;;;;;;;;;;5092556;28;20364;-14
2021/03/06 13:31:31;;;;;;;3.08;1.92;;;;;;;;;;5092728;28;20110;-14
2021/03/06 13:33:56;;;;;;;1.83;1.50;;;;;;;;;;5092566;28;20069;-14
2021/03/06 13:36:22;;;;;;;2.45;1.67;;;;;;;;;;5091635;28;20428;-14
2021/03/06 13:38:47;;;;;;;2.38;1.38;;;;;;;;;;5092059;28;20116;-15
2021/03/06 13:41:13;;;;;;;4.68;1.90;;;;;;;;;;5092401;28;20060;-14
2021/03/06 13:43:38;;;;;;;2.33;1.52;;;;;;;;;;5090959;28;20528;-14
2021/03/06 13:46:04;;;;;;;2.65;1.27;;;;;;;;;;5092156;28;20535;-14
2021/03/06 13:48:29;;;;;;;2.00;1.75;;;;;;;;;;5077130;28;20466;-16
2021/03/06 13:50:55;;;;;;;2.58;1.50;;;;;;;;;;5072557;28;20536;-15
2021/03/06 13:53:21;;;;;;;3.58;2.20;;;;;;;;;;5072255;28;20016;-13
2021/03/06 13:55:47;;;;;;;2.38;1.40;;;;;;;;;;5070568;28;20391;-13
2021/03/06 13:58:13;;;;;;;3.10;1.65;;;;;;;;;;5071990;28;20021;-16
2021/03/06 14:00:38;;;;;;;2.17;1.63;;;;;;;;;;5071433;28;20039;-18
2021/03/06 14:03:04;;;;;;;2.67;1.52;;;;;;;;;;5053793;28;20066;-22
2021/03/06 14:05:29;;;;;;;3.55;1.88;;;;;;;;;;5071239;28;20039;-21
2021/03/06 14:07:54;;;;;;;1.65;1.55;;;;;;;;;;5070177;28;20032;-22
2021/03/06 14:10:20;;;;;;;3.30;1.77;;;;;;;;;;5070478;28;20025;-21
2021/03/06 14:12:47;;;;;;;1.80;1.63;;;;;;;;;;5071878;28;20386;-21
2021/03/06 14:15:15;;;;;;;41.17;4.32;;;;;;;;;;5070981;28;20520;-18
2021/03/06 14:17:41;;;;;;;5.28;2.50;;;;;;;;;;5070495;28;20028;-17
2021/03/06 14:20:06;;;;;;;1.75;1.38;;;;;;;;;;5088100;28;20028;-17
2021/03/06 14:22:32;;;;;;;5.00;2.35;;;;;;;;;;5090979;28;20043;-24
2021/03/06 14:24:57;;;;;;;8.52;3.58;;;;;;;;;;5091282;28;20044;-18
2021/03/06 14:27:22;;;;;;;2.70;1.65;;;;;;;;;;5092320;28;20077;-18
2021/03/06 14:29:48;;;;;;;3.45;1.80;;;;;;;;;;5091919;28;20028;-19
2021/03/06 14:32:13;;;;;;;2.88;2.17;;;;;;;;;;5090883;28;20081;-18
2021/03/06 14:34:39;;;;;;;4.15;2.78;;;;;;;;;;5091459;28;20098;-18
2021/03/06 14:37:04;;;;;;;9.70;5.40;;;;;;;;;;5091345;28;20081;-15
2021/03/06 14:39:30;;;;;;;2.47;1.63;;;;;;;;;;5091600;28;20032;-17
2021/03/06 14:41:55;;;;;;;2.75;2.20;;;;;;;;;;5091480;28;20049;-17
2021/03/06 14:44:21;;;;;;;2.30;1.48;;;;;;;;;;5091261;28;20016;-18